Aviation Digital Data Service (ADDS)

Output produced by METARs form (2351 UTC 24 October 2014)
found at http://www.aviationweather.gov/adds/metars/
 
KDFW 242322Z 2500/2606 18010KT P6SM SCT300